createdAt,value
2022-09-21T00:01:14.311Z,21.27
2022-09-21T00:03:42.152Z,20.88
2022-09-21T00:06:11.650Z,23.05
2022-09-21T00:08:38.200Z,19.75
2022-09-21T00:11:05.652Z,33.05
2022-09-21T00:13:33.637Z,24.08
2022-09-21T00:16:00.454Z,25.42
2022-09-21T00:18:27.105Z,19.67
2022-09-21T00:20:53.587Z,22.65
2022-09-21T00:23:20.510Z,23.77
2022-09-21T00:25:47.050Z,25.48
2022-09-21T00:28:13.477Z,24.45
2022-09-21T00:30:39.985Z,21.52
2022-09-21T00:33:06.922Z,24.02
2022-09-21T00:35:34.063Z,24.00
2022-09-21T00:38:02.378Z,20.13
2022-09-21T00:40:29.908Z,22.48
2022-09-21T00:43:16.378Z,24.63
2022-09-21T00:45:46.206Z,21.42
2022-09-21T00:48:12.768Z,18.70
2022-09-21T00:50:46.041Z,22.48
2022-09-21T00:53:13.645Z,21.08
2022-09-21T00:55:48.361Z,19.48
2022-09-21T00:58:22.519Z,17.52
2022-09-21T01:00:50.091Z,18.80
2022-09-21T01:03:17.273Z,20.73
2022-09-21T01:05:44.404Z,16.65
2022-09-21T01:08:13.847Z,19.45
2022-09-21T01:11:08.311Z,16.55
2022-09-21T01:13:48.472Z,19.58
2022-09-21T01:16:43.322Z,19.15
2022-09-21T01:19:41.558Z,17.95
2022-09-21T01:22:22.356Z,19.48
2022-09-21T01:24:51.980Z,16.30
2022-09-21T01:27:48.010Z,18.42
2022-09-21T01:30:20.215Z,18.80
2022-09-21T01:33:09.104Z,20.90
2022-09-21T01:35:44.834Z,20.27
2022-09-21T01:38:20.859Z,19.00
2022-09-21T01:40:52.453Z,20.83
2022-09-21T01:43:25.352Z,18.52
2022-09-21T01:45:54.857Z,18.48
2022-09-21T01:48:24.572Z,15.15
2022-09-21T01:50:55.573Z,17.38
2022-09-21T01:53:39.658Z,17.05
2022-09-21T01:56:15.942Z,20.85
2022-09-21T01:58:49.704Z,18.95
2022-09-21T02:01:20.973Z,20.70
2022-09-21T02:03:51.987Z,21.30
2022-09-21T02:06:19.342Z,18.80
2022-09-21T02:08:46.936Z,17.83
2022-09-21T02:11:13.959Z,19.67
2022-09-21T02:13:45.857Z,22.33
2022-09-21T02:16:36.458Z,17.90
2022-09-21T02:19:07.582Z,17.67
2022-09-21T02:21:51.917Z,17.65
2022-09-21T02:24:33.408Z,20.42
2022-09-21T02:27:04.086Z,16.40
2022-09-21T02:29:51.477Z,21.55
2022-09-21T02:32:24.342Z,18.10
2022-09-21T02:34:57.595Z,17.85
2022-09-21T02:37:32.788Z,16.98
2022-09-21T02:40:24.880Z,19.40
2022-09-21T02:43:15.410Z,19.38
2022-09-21T02:45:48.096Z,16.73
2022-09-21T02:48:18.295Z,17.10
2022-09-21T02:50:47.613Z,18.77
2022-09-21T02:53:17.155Z,16.23
2022-09-21T02:55:45.427Z,16.55
2022-09-21T02:58:16.076Z,18.92
2022-09-21T03:00:42.602Z,15.70
2022-09-21T03:03:21.203Z,18.38
2022-09-21T03:05:51.077Z,20.02
2022-09-21T03:08:18.412Z,18.75
2022-09-21T03:10:46.147Z,17.35
2022-09-21T03:13:13.096Z,17.67
2022-09-21T03:15:41.033Z,18.20
2022-09-21T03:18:10.047Z,18.67
2022-09-21T03:20:37.781Z,16.88
2022-09-21T03:23:04.452Z,19.42
2022-09-21T03:25:31.315Z,16.33
2022-09-21T03:27:58.521Z,18.05
2022-09-21T03:30:27.209Z,19.63
2022-09-21T03:32:54.304Z,17.63
2022-09-21T03:35:22.169Z,17.95
2022-09-21T03:37:50.956Z,21.95
2022-09-21T03:40:17.912Z,18.38
2022-09-21T03:42:45.150Z,20.20
2022-09-21T03:45:12.869Z,18.85
2022-09-21T03:47:39.907Z,18.50
2022-09-21T03:50:10.033Z,17.17
2022-09-21T03:52:38.465Z,17.10
2022-09-21T03:55:09.226Z,18.05
2022-09-21T03:57:36.948Z,18.92
2022-09-21T04:00:09.511Z,19.17
2022-09-21T04:02:42.193Z,16.63
2022-09-21T04:05:11.137Z,16.13
2022-09-21T04:07:37.978Z,16.92
2022-09-21T04:10:06.624Z,18.40
2022-09-21T04:12:35.000Z,18.02
2022-09-21T04:15:01.962Z,17.02
2022-09-21T04:17:29.341Z,22.27
2022-09-21T04:19:55.787Z,19.65
2022-09-21T04:22:24.793Z,22.30
2022-09-21T04:24:51.580Z,19.60
2022-09-21T04:27:18.477Z,17.88
2022-09-21T04:29:44.919Z,23.50
2022-09-21T04:32:12.039Z,19.70
2022-09-21T04:34:39.471Z,17.90
2022-09-21T04:37:09.783Z,20.42
2022-09-21T04:39:36.489Z,18.80
2022-09-21T04:42:03.046Z,21.20
2022-09-21T04:44:30.171Z,15.25
2022-09-21T04:46:58.194Z,22.35
2022-09-21T04:49:25.047Z,19.75
2022-09-21T04:51:52.089Z,20.95
2022-09-21T04:54:18.670Z,20.33
2022-09-21T04:56:45.187Z,20.77
2022-09-21T04:59:11.665Z,19.90
2022-09-21T05:01:38.212Z,19.60
2022-09-21T05:04:04.768Z,20.35
2022-09-21T05:06:33.042Z,20.52
2022-09-21T05:09:18.380Z,19.52
2022-09-21T05:11:45.678Z,27.27
2022-09-21T05:14:12.591Z,21.23
2022-09-21T05:16:39.011Z,23.08
2022-09-21T05:19:05.568Z,21.50
2022-09-21T05:21:32.147Z,20.20
2022-09-21T05:23:58.713Z,20.40
2022-09-21T05:26:25.562Z,20.98
2022-09-21T05:28:52.468Z,22.25
2022-09-21T05:31:51.257Z,18.50
2022-09-21T05:34:38.770Z,24.88
2022-09-21T05:37:12.068Z,21.88
2022-09-21T05:39:38.975Z,21.60
2022-09-21T05:42:06.075Z,22.48
2022-09-21T05:44:32.737Z,22.92
2022-09-21T05:47:17.227Z,17.88
2022-09-21T05:49:52.731Z,23.02
2022-09-21T05:52:25.257Z,24.63
2022-09-21T05:55:29.887Z,21.95
2022-09-21T05:58:10.323Z,18.58
2022-09-21T06:00:57.188Z,20.00
2022-09-21T06:03:29.189Z,24.45
2022-09-21T06:05:59.294Z,31.85
2022-09-21T06:08:26.739Z,28.27
2022-09-21T06:10:54.791Z,26.13
2022-09-21T06:13:21.346Z,25.30
2022-09-21T06:15:47.879Z,23.98
2022-09-21T06:18:17.793Z,24.95
2022-09-21T06:20:45.047Z,23.23
2022-09-21T06:23:13.247Z,25.27
2022-09-21T06:25:40.120Z,37.10
2022-09-21T06:28:10.164Z,30.70
2022-09-21T06:30:37.803Z,29.83
2022-09-21T06:33:08.341Z,27.08
2022-09-21T06:35:36.246Z,30.23
2022-09-21T06:38:07.839Z,28.02
2022-09-21T06:40:37.315Z,26.98
2022-09-21T06:43:05.391Z,37.83
2022-09-21T06:45:32.370Z,35.40
2022-09-21T06:47:59.178Z,34.33
2022-09-21T06:50:25.705Z,30.55
2022-09-21T06:52:52.233Z,31.30
2022-09-21T06:55:18.758Z,26.80
2022-09-21T06:57:45.342Z,25.83
2022-09-21T07:00:13.870Z,28.10
2022-09-21T07:02:45.025Z,27.27
2022-09-21T07:05:12.341Z,19.48
2022-09-21T07:07:40.171Z,24.27
2022-09-21T07:10:12.111Z,25.92
2022-09-21T07:12:41.351Z,21.52
2022-09-21T07:15:09.179Z,25.00
2022-09-21T07:17:37.933Z,23.52
2022-09-21T07:20:06.340Z,23.83
2022-09-21T07:22:33.366Z,24.00
2022-09-21T07:25:00.005Z,23.83
2022-09-21T07:27:28.110Z,24.20
2022-09-21T07:29:54.702Z,22.40
2022-09-21T07:32:21.271Z,24.75
2022-09-21T07:34:48.266Z,27.35
2022-09-21T07:37:15.192Z,22.65
2022-09-21T07:39:41.773Z,23.20
2022-09-21T07:42:08.535Z,27.02
2022-09-21T07:44:34.968Z,23.08
2022-09-21T07:47:03.508Z,25.80
2022-09-21T07:49:30.180Z,27.33
2022-09-21T07:52:01.424Z,24.10
2022-09-21T07:54:29.485Z,21.10
2022-09-21T07:57:14.542Z,23.13
2022-09-21T07:59:41.008Z,19.73
2022-09-21T08:02:07.660Z,23.08
2022-09-21T08:04:34.263Z,27.50
2022-09-21T08:07:00.684Z,25.73
2022-09-21T08:09:27.104Z,24.75
2022-09-21T08:11:55.664Z,24.08
2022-09-21T08:14:26.062Z,21.33
2022-09-21T08:16:53.157Z,29.60
2022-09-21T08:19:20.369Z,25.42
2022-09-21T08:21:53.497Z,25.77
2022-09-21T08:24:22.950Z,26.38
2022-09-21T08:26:52.201Z,27.70
2022-09-21T08:29:18.996Z,23.08
2022-09-21T08:31:46.805Z,22.58
2022-09-21T08:34:14.204Z,20.98
2022-09-21T08:36:41.012Z,23.40
2022-09-21T08:39:08.834Z,33.42
2022-09-21T08:42:13.265Z,24.02
2022-09-21T08:45:01.855Z,19.70
2022-09-21T08:47:43.779Z,21.65
2022-09-21T08:50:32.050Z,20.85
2022-09-21T08:53:04.656Z,20.45
2022-09-21T08:55:31.415Z,19.80
2022-09-21T08:57:59.353Z,17.63
2022-09-21T09:00:26.145Z,15.20
2022-09-21T09:03:12.351Z,11.82
2022-09-21T09:06:01.574Z,15.10
2022-09-21T09:08:52.280Z,11.20
2022-09-21T09:11:54.327Z,11.95
2022-09-21T09:14:39.382Z,16.80
2022-09-21T09:17:24.276Z,10.30
2022-09-21T09:19:58.472Z,8.40
2022-09-21T09:22:40.177Z,10.55
2022-09-21T09:25:17.780Z,11.98
2022-09-21T09:27:48.229Z,11.60
2022-09-21T09:30:17.493Z,11.85
2022-09-21T09:32:56.613Z,12.65
2022-09-21T09:35:29.481Z,12.23
2022-09-21T09:38:23.593Z,11.38
2022-09-21T09:41:10.255Z,16.90
2022-09-21T09:43:53.447Z,13.05
2022-09-21T09:46:35.401Z,13.90
2022-09-21T09:49:20.197Z,8.13
2022-09-21T09:51:47.966Z,9.50
2022-09-21T09:54:17.322Z,10.45
2022-09-21T09:56:44.135Z,12.35
2022-09-21T09:59:19.291Z,10.57
2022-09-21T10:01:47.311Z,8.32
2022-09-21T10:04:17.417Z,9.15
2022-09-21T10:06:46.804Z,10.75
2022-09-21T10:09:32.927Z,9.65
2022-09-21T10:12:16.939Z,7.95
2022-09-21T10:14:51.362Z,3.35
2022-09-21T10:17:19.089Z,6.93
2022-09-21T10:19:46.421Z,7.68
2022-09-21T10:22:20.321Z,9.85
2022-09-21T10:24:51.465Z,8.73
2022-09-21T10:27:25.444Z,10.85
2022-09-21T10:29:52.003Z,8.27
2022-09-21T10:32:22.165Z,11.13
2022-09-21T10:35:13.067Z,5.95
2022-09-21T10:37:43.833Z,4.97
2022-09-21T10:40:19.347Z,11.82
2022-09-21T10:42:48.291Z,11.98
2022-09-21T10:45:26.952Z,6.15
2022-09-21T10:48:13.928Z,10.68
2022-09-21T10:50:42.643Z,7.95
2022-09-21T10:53:09.060Z,5.80
2022-09-21T10:55:44.072Z,8.05
2022-09-21T10:58:19.499Z,14.45
2022-09-21T11:00:51.889Z,5.53
2022-09-21T11:03:30.322Z,8.75
2022-09-21T11:06:03.283Z,6.35
2022-09-21T11:08:56.161Z,9.85
2022-09-21T11:11:55.632Z,8.05
2022-09-21T11:14:28.207Z,5.38
2022-09-21T11:17:12.607Z,7.13
2022-09-21T11:19:42.558Z,8.88
2022-09-21T11:22:42.806Z,5.07
2022-09-21T11:25:20.458Z,4.00
2022-09-21T11:28:13.880Z,7.40
2022-09-21T11:31:01.286Z,7.18
2022-09-21T11:33:39.988Z,7.85
2022-09-21T11:36:12.587Z,7.43
2022-09-21T11:39:16.968Z,9.27
2022-09-21T11:41:58.971Z,7.50
2022-09-21T11:44:53.135Z,8.32
2022-09-21T11:47:34.677Z,12.13
2022-09-21T11:50:33.661Z,6.60
2022-09-21T11:53:22.599Z,7.25
2022-09-21T11:56:11.765Z,10.27
2022-09-21T11:58:53.314Z,9.23
2022-09-21T12:01:38.019Z,9.02
2022-09-21T12:04:11.179Z,9.85
2022-09-21T12:06:56.398Z,6.45
2022-09-21T12:09:38.141Z,9.80
2022-09-21T12:12:16.655Z,5.75
2022-09-21T12:14:59.709Z,7.57
2022-09-21T12:17:35.119Z,12.70
2022-09-21T12:25:38.518Z,6.95
2022-09-21T12:28:18.238Z,8.23
2022-09-21T12:30:51.262Z,5.85
2022-09-21T12:33:31.125Z,10.10
2022-09-21T12:36:10.643Z,5.53
2022-09-21T12:38:46.246Z,6.30
2022-09-21T12:41:37.753Z,3.50
2022-09-21T12:44:15.402Z,8.40
2022-09-21T12:46:51.821Z,8.38
2022-09-21T12:49:29.773Z,6.03
2022-09-21T12:52:01.434Z,6.35
2022-09-21T12:54:46.832Z,5.93
2022-09-21T13:00:22.158Z,9.95
2022-09-21T13:02:55.823Z,8.02
2022-09-21T13:05:28.260Z,5.13
2022-09-21T13:08:04.551Z,5.63
2022-09-21T13:10:49.237Z,5.35
2022-09-21T13:13:45.892Z,6.78
2022-09-21T13:16:31.222Z,3.97
2022-09-21T13:21:31.224Z,3.70
2022-09-21T13:24:03.601Z,7.32
2022-09-21T13:27:06.871Z,3.53
2022-09-21T13:29:36.012Z,3.83
2022-09-21T13:32:11.468Z,6.30
2022-09-21T13:34:39.062Z,6.28
2022-09-21T13:37:19.491Z,7.22
2022-09-21T13:39:55.688Z,8.38
2022-09-21T13:42:37.003Z,8.15
2022-09-21T13:45:15.669Z,5.88
2022-09-21T13:47:45.294Z,7.57
2022-09-21T13:50:18.109Z,3.08
2022-09-21T13:52:52.031Z,5.57
2022-09-21T13:55:24.662Z,5.20
2022-09-21T13:57:55.796Z,5.35
2022-09-21T14:00:22.334Z,4.85
2022-09-21T14:02:49.089Z,7.75
2022-09-21T14:05:43.516Z,5.03
2022-09-21T14:08:16.221Z,2.47
2022-09-21T14:10:52.361Z,6.90
2022-09-21T14:13:39.121Z,7.05
2022-09-21T14:16:37.370Z,8.13
2022-09-21T14:19:26.719Z,5.53
2022-09-21T14:22:08.501Z,5.75
2022-09-21T14:24:36.183Z,2.17
2022-09-21T14:27:13.468Z,2.47
2022-09-21T14:29:53.028Z,4.07
2022-09-21T14:32:24.797Z,7.03
2022-09-21T14:34:57.088Z,6.20
2022-09-21T14:37:52.083Z,4.15
2022-09-21T14:40:28.902Z,5.67
2022-09-21T14:42:58.788Z,4.82
2022-09-21T14:45:46.137Z,6.90
2022-09-21T14:48:37.396Z,4.85
2022-09-21T14:51:17.101Z,7.85
2022-09-21T14:54:02.188Z,5.47
2022-09-21T14:56:56.801Z,3.53
2022-09-21T14:59:29.137Z,5.13
2022-09-21T15:02:00.029Z,11.63
2022-09-21T15:04:29.449Z,4.40
2022-09-21T15:07:26.772Z,5.15
2022-09-21T15:10:45.210Z,7.85
2022-09-21T15:13:23.944Z,6.93
2022-09-21T15:16:11.932Z,7.88
2022-09-21T15:18:42.489Z,8.48
2022-09-21T15:21:21.929Z,9.23
2022-09-21T15:23:51.414Z,4.30
2022-09-21T15:26:26.439Z,10.35
2022-09-21T15:29:09.646Z,5.68
2022-09-21T15:31:42.013Z,5.32
2022-09-21T15:34:13.117Z,6.57
2022-09-21T15:36:42.157Z,5.35
2022-09-21T15:39:27.794Z,7.30
2022-09-21T15:42:09.502Z,6.30
2022-09-21T15:44:37.976Z,9.60
2022-09-21T15:47:08.473Z,2.58
2022-09-21T15:49:36.227Z,4.30
2022-09-21T15:52:12.863Z,4.50
2022-09-21T15:54:52.111Z,7.00
2022-09-21T15:57:28.483Z,5.55
2022-09-21T15:59:56.184Z,5.20
2022-09-21T16:02:26.828Z,7.80
2022-09-21T16:04:53.484Z,4.75
2022-09-21T16:07:35.557Z,5.22
2022-09-21T16:10:13.624Z,5.65
2022-09-21T16:12:41.405Z,9.52
2022-09-21T16:15:23.135Z,8.35
2022-09-21T16:18:05.119Z,2.58
2022-09-21T16:20:47.376Z,7.80
2022-09-21T16:23:17.361Z,5.78
2022-09-21T16:25:43.956Z,12.55
2022-09-21T16:28:16.322Z,4.32
2022-09-21T16:30:53.431Z,6.28
2022-09-21T16:33:41.119Z,4.72
2022-09-21T16:36:20.071Z,5.95
2022-09-21T16:38:55.665Z,4.30
2022-09-21T16:41:24.772Z,8.02
2022-09-21T16:43:52.059Z,5.07
2022-09-21T16:46:18.928Z,6.45
2022-09-21T16:48:45.451Z,6.55
2022-09-21T16:51:13.555Z,10.43
2022-09-21T16:53:40.165Z,8.90
2022-09-21T16:56:14.310Z,6.25
2022-09-21T16:58:43.071Z,8.30
2022-09-21T17:01:15.423Z,5.78
2022-09-21T17:03:42.466Z,6.53
2022-09-21T17:06:15.756Z,14.85
2022-09-21T17:08:42.307Z,19.50
2022-09-21T17:11:08.761Z,8.75
2022-09-21T17:13:35.301Z,13.85
2022-09-21T17:16:02.139Z,9.18
2022-09-21T17:18:29.151Z,8.60
2022-09-21T17:20:55.726Z,8.23
2022-09-21T17:23:27.559Z,10.05
2022-09-21T17:25:54.031Z,6.82
2022-09-21T17:28:26.101Z,10.23
2022-09-21T17:30:54.177Z,4.35
2022-09-21T17:33:21.462Z,15.95
2022-09-21T17:35:50.966Z,6.65
2022-09-21T17:38:18.158Z,7.45
2022-09-21T17:40:45.170Z,5.78
2022-09-21T17:43:29.640Z,8.55
2022-09-21T17:46:08.002Z,7.60
2022-09-21T17:48:35.683Z,7.68
2022-09-21T17:51:02.642Z,5.15
2022-09-21T17:53:37.342Z,7.38
2022-09-21T17:56:28.550Z,8.45
2022-09-21T17:59:02.784Z,7.72
2022-09-21T18:01:32.246Z,10.43
2022-09-21T18:03:58.946Z,14.30
2022-09-21T18:06:25.973Z,9.90
2022-09-21T18:08:53.787Z,26.40
2022-09-21T18:12:18.091Z,18.48
2022-09-21T18:14:57.561Z,14.48
2022-09-21T18:17:51.160Z,20.67
2022-09-21T18:20:47.715Z,16.92
2022-09-21T18:23:21.590Z,9.90
2022-09-21T18:25:52.860Z,12.45
2022-09-21T18:28:34.472Z,7.32
2022-09-21T18:31:18.991Z,7.28
2022-09-21T18:34:00.227Z,14.90
2022-09-21T18:36:48.557Z,11.65
2022-09-21T18:39:23.795Z,9.00
2022-09-21T18:42:22.839Z,13.50
2022-09-21T18:45:12.475Z,14.30
2022-09-21T18:47:44.329Z,11.98
2022-09-21T18:50:23.623Z,13.57
2022-09-21T18:52:54.104Z,9.80
2022-09-21T18:55:31.149Z,12.27
2022-09-21T18:57:59.785Z,9.13
2022-09-21T19:00:31.785Z,12.88
2022-09-21T19:03:17.096Z,15.18
2022-09-21T19:06:12.796Z,13.50
2022-09-21T19:08:48.650Z,11.77
2022-09-21T19:11:44.281Z,10.75
2022-09-21T19:14:28.352Z,12.40
2022-09-21T19:17:13.743Z,14.68
2022-09-21T19:19:49.444Z,16.75
2022-09-21T19:22:24.523Z,11.68
2022-09-21T19:25:07.958Z,11.95
2022-09-21T19:27:39.808Z,14.73
2022-09-21T19:30:09.429Z,11.63
2022-09-21T19:32:49.442Z,14.07
2022-09-21T19:35:30.035Z,13.45
2022-09-21T19:37:59.597Z,13.82
2022-09-21T19:40:32.416Z,13.65
2022-09-21T19:43:08.135Z,15.32
2022-09-21T19:45:56.112Z,14.88
2022-09-21T19:48:27.164Z,16.02
2022-09-21T19:50:57.153Z,14.55
2022-09-21T19:53:42.784Z,12.88
2022-09-21T19:56:31.668Z,11.00
2022-09-21T19:59:17.205Z,17.60
2022-09-21T20:02:01.235Z,11.07
2022-09-21T20:04:40.622Z,11.90
2022-09-21T20:07:30.001Z,22.58
2022-09-21T20:10:24.715Z,13.57
2022-09-21T20:13:23.807Z,12.98
2022-09-21T20:15:57.052Z,11.57
2022-09-21T20:18:32.371Z,16.30
2022-09-21T20:23:25.606Z,14.45
2022-09-21T20:26:05.148Z,17.15
2022-09-21T20:28:31.853Z,13.73
2022-09-21T20:30:58.440Z,13.45
2022-09-21T20:33:26.890Z,14.63
2022-09-21T20:35:55.351Z,15.75
2022-09-21T20:38:22.566Z,15.65
2022-09-21T20:40:49.598Z,15.43
2022-09-21T20:43:16.181Z,16.20
2022-09-21T20:45:47.683Z,16.50
2022-09-21T20:48:14.345Z,15.02
2022-09-21T20:50:42.586Z,17.73
2022-09-21T20:53:09.791Z,17.38
2022-09-21T20:55:37.050Z,14.65
2022-09-21T20:58:03.530Z,14.48
2022-09-21T21:00:30.547Z,14.52
2022-09-21T21:03:01.386Z,14.10
2022-09-21T21:05:29.176Z,14.65
2022-09-21T21:07:56.541Z,11.15
2022-09-21T21:10:23.605Z,15.85
2022-09-21T21:12:50.566Z,18.50
2022-09-21T21:15:17.441Z,14.02
2022-09-21T21:17:43.882Z,15.10
2022-09-21T21:20:10.819Z,17.98
2022-09-21T21:22:37.527Z,15.82
2022-09-21T21:25:04.511Z,15.75
2022-09-21T21:27:31.453Z,16.10
2022-09-21T21:29:58.492Z,16.65
2022-09-21T21:32:26.491Z,16.90
2022-09-21T21:34:54.103Z,16.80
2022-09-21T21:37:24.899Z,20.83
2022-09-21T21:39:52.393Z,17.58
2022-09-21T21:42:20.634Z,22.27
2022-09-21T21:44:48.140Z,17.55
2022-09-21T21:47:38.241Z,16.73
2022-09-21T21:50:01.364Z,17.08
2022-09-21T21:52:27.773Z,18.30
2022-09-21T21:54:54.647Z,15.57
2022-09-21T21:57:21.097Z,14.27
2022-09-21T21:59:47.652Z,21.98
2022-09-21T22:02:15.352Z,17.73
2022-09-21T22:04:42.224Z,16.38
2022-09-21T22:07:08.670Z,18.85
2022-09-21T22:09:35.192Z,15.90
2022-09-21T22:12:02.471Z,19.63
2022-09-21T22:14:29.020Z,19.20
2022-09-21T22:16:55.663Z,16.27
2022-09-21T22:19:22.170Z,18.83
2022-09-21T22:21:53.868Z,19.10
2022-09-21T22:24:21.547Z,19.98
2022-09-21T22:26:51.515Z,18.70
2022-09-21T22:29:18.061Z,16.70
2022-09-21T22:31:47.071Z,18.50
2022-09-21T22:34:14.580Z,16.25
2022-09-21T22:36:43.313Z,19.15
2022-09-21T22:39:10.184Z,16.08
2022-09-21T22:41:39.238Z,16.77
2022-09-21T22:44:06.461Z,18.88
2022-09-21T22:46:33.673Z,17.50
2022-09-21T22:49:00.670Z,19.02
2022-09-21T22:51:29.221Z,16.98
2022-09-21T22:53:56.503Z,16.25
2022-09-21T22:56:25.793Z,16.40
2022-09-21T22:58:54.906Z,18.30
2022-09-21T23:01:29.664Z,19.75
2022-09-21T23:04:01.267Z,17.38
2022-09-21T23:06:32.517Z,16.42
2022-09-21T23:09:00.042Z,17.23
2022-09-21T23:11:29.486Z,20.13
2022-09-21T23:13:57.473Z,18.30
2022-09-21T23:16:25.409Z,20.83
2022-09-21T23:18:52.321Z,18.48
2022-09-21T23:21:22.869Z,17.65
2022-09-21T23:23:49.798Z,16.30
2022-09-21T23:26:26.289Z,19.42
2022-09-21T23:28:55.445Z,19.13
2022-09-21T23:31:23.143Z,19.55
2022-09-21T23:33:51.550Z,16.80
2022-09-21T23:36:21.080Z,16.23
2022-09-21T23:38:48.480Z,20.38
2022-09-21T23:41:20.556Z,19.85
2022-09-21T23:43:47.808Z,14.57
2022-09-21T23:46:19.835Z,20.88
2022-09-21T23:48:46.874Z,16.35
2022-09-21T23:51:13.893Z,19.92
2022-09-21T23:53:41.030Z,17.85
2022-09-21T23:56:09.114Z,18.25
2022-09-21T23:58:35.540Z,19.40
